Time;durP1;ratioP1;P1;durP2;ratioP2;P2;SDS_P1;SDS_P2;PMS_P1;PMS_P2;Temp;Humidity;BMP_temperature;BMP_pressure;BME280_temperature;BME280_humidity;BME280_pressure;Samples;Min_cycle;Max_cycle;Signal;HPM_P1;HPM_P2
2022/05/06 00:01:29;;;;;;;5.57;4.15;;;;;;;15.85;47.99;100167.22;5014770;28;20111;-89
2022/05/06 00:03:55;;;;;;;6.97;4.50;;;;;;;15.92;47.97;100171.78;5014835;28;20021;-89
2022/05/06 00:06:20;;;;;;;13.73;4.43;;;;;;;15.87;47.94;100189.16;5014813;28;20022;-89
2022/05/06 00:08:46;;;;;;;10.55;4.68;;;;;;;15.75;48.03;100140.13;5014242;28;20026;-89
2022/05/06 00:11:12;;;;;;;6.40;4.18;;;;;;;15.90;48.08;100169.31;5031515;28;20014;-89
2022/05/06 00:13:37;;;;;;;8.18;5.05;;;;;;;16.02;47.93;100188.22;5031708;28;20060;-88
2022/05/06 00:16:06;;;;;;;6.55;4.93;;;;;;;16.23;48.25;100245.88;5031846;28;20106;-89
2022/05/06 00:18:32;;;;;;;7.65;5.00;;;;;;;16.00;48.59;100204.38;5031706;28;20036;-89
2022/05/06 00:20:58;;;;;;;7.97;5.22;;;;;;;15.83;48.37;100195.91;5014007;28;20025;-89
2022/05/06 00:23:23;;;;;;;10.93;5.85;;;;;;;15.88;48.69;100206.78;5031579;28;20030;-89
2022/05/06 00:25:49;;;;;;;7.25;5.00;;;;;;;15.57;49.03;100155.75;5031900;28;20513;-89
2022/05/06 00:28:15;;;;;;;5.68;5.03;;;;;;;16.28;49.38;100268.25;5014574;28;20025;-89
2022/05/06 00:30:41;;;;;;;6.78;5.32;;;;;;;16.08;49.65;100244.19;5032267;28;20013;-89
2022/05/06 00:33:09;;;;;;;7.20;5.90;;;;;;;16.20;50.19;100281.75;5014694;28;20036;-88
2022/05/06 00:35:38;;;;;;;6.43;5.65;;;;;;;15.30;50.88;100154.75;5014659;28;20025;-89
2022/05/06 00:38:04;;;;;;;6.95;5.65;;;;;;;15.01;51.16;100120.34;5032265;28;20557;-89
2022/05/06 00:40:30;;;;;;;6.85;5.50;;;;;;;15.49;51.48;100223.25;5014591;28;20029;-89
2022/05/06 00:42:56;;;;;;;8.25;5.32;;;;;;;15.05;51.45;100159.66;5014496;28;20418;-88
2022/05/06 00:45:31;;;;;;;7.45;5.40;;;;;;;15.69;51.68;100289.19;5014189;28;20048;-89
2022/05/06 00:47:56;;;;;;;9.52;5.30;;;;;;;15.19;52.12;100219.94;5036280;28;20488;-89
2022/05/06 00:50:22;;;;;;;7.20;4.95;;;;;;;14.49;52.44;100137.44;5018101;28;20061;-89
2022/05/06 00:52:47;;;;;;;5.30;4.72;;;;;;;14.86;52.57;100213.47;5018046;28;20482;-88
2022/05/06 00:55:13;;;;;;;9.75;4.95;;;;;;;14.83;52.60;100208.53;5018027;28;20032;-89
2022/05/06 00:57:39;;;;;;;8.38;5.10;;;;;;;14.52;52.38;100156.47;5017580;28;20045;-90
2022/05/06 01:00:18;;;;;;;6.47;4.70;;;;;;;15.30;52.90;100279.78;5035378;28;20033;-89
2022/05/06 01:02:44;;;;;;;5.10;4.70;;;;;;;15.05;52.75;100252.75;5019781;28;20047;-89
2022/05/06 01:05:11;;;;;;;4.40;4.00;;;;;;;14.98;53.03;100249.19;5035925;28;20025;-89
2022/05/06 01:07:37;;;;;;;6.70;4.70;;;;;;;14.31;53.02;100157.25;5035639;28;20037;-89
2022/05/06 01:10:03;;;;;;;4.85;4.35;;;;;;;14.15;52.93;100152.16;5017495;28;20022;-88
2022/05/06 01:12:29;;;;;;;6.50;5.22;;;;;;;14.45;53.09;100190.13;5034922;28;20516;-89
2022/05/06 01:14:54;;;;;;;10.88;5.03;;;;;;;14.35;53.17;100184.25;5017190;28;20021;-89
2022/05/06 01:17:19;;;;;;;7.28;5.30;;;;;;;14.56;53.31;100208.25;5034554;28;20018;-89
2022/05/06 01:19:45;;;;;;;7.53;5.75;;;;;;;14.09;53.52;100146.75;5017019;28;20414;-89
2022/05/06 01:22:10;;;;;;;7.72;5.03;;;;;;;14.46;53.19;100202.41;5034689;28;20018;-89
2022/05/06 01:24:36;;;;;;;6.10;4.68;;;;;;;14.99;53.24;100282.75;5034752;28;20051;-89
2022/05/06 01:27:04;;;;;;;7.88;4.80;;;;;;;14.38;53.17;100170.59;5034768;28;20044;-89
2022/05/06 01:29:31;;;;;;;6.18;5.43;;;;;;;14.84;53.29;100269.47;5034700;28;20028;-89
2022/05/06 01:31:57;;;;;;;5.15;4.45;;;;;;;15.00;53.42;100272.94;5016783;28;20490;-89
2022/05/06 01:34:25;;;;;;;9.52;5.40;;;;;;;14.28;53.44;100164.78;5034310;28;20105;-89
2022/05/06 01:36:56;;;;;;;6.75;5.07;;;;;;;14.43;53.33;100200.13;5034163;28;20569;-89
2022/05/06 01:39:28;;;;;;;6.30;5.20;;;;;;;14.84;53.77;100273.97;5034457;28;20056;-89
2022/05/06 01:41:58;;;;;;;6.47;5.28;;;;;;;14.78;53.74;100254.28;5016888;28;20029;-89
2022/05/06 01:44:25;;;;;;;7.25;5.15;;;;;;;14.11;53.86;100200.47;5016917;28;20025;-89
2022/05/06 01:46:58;;;;;;;5.70;5.13;;;;;;;13.82;53.97;100129.66;5035023;28;20025;-89
2022/05/06 01:49:25;;;;;;;8.00;5.30;;;;;;;14.61;54.30;100272.28;5016855;28;20049;-89
2022/05/06 01:51:53;;;;;;;7.00;5.28;;;;;;;14.23;54.01;100210.47;5034635;28;20021;-89
2022/05/06 01:54:18;;;;;;;8.82;5.60;;;;;;;13.71;54.11;100172.59;5016629;28;20519;-89
2022/05/06 01:56:46;;;;;;;6.32;4.88;;;;;;;14.55;54.00;100269.56;5033867;28;20128;-89
2022/05/06 01:59:13;;;;;;;10.85;5.68;;;;;;;14.19;53.99;100227.78;5033871;28;20052;-90
2022/05/06 02:01:39;;;;;;;10.93;5.40;;;;;;;14.53;53.93;100282.19;5034118;28;20078;-89
2022/05/06 02:06:48;;;;;;;6.97;5.40;;;;;;;14.18;54.21;100225.31;5034036;28;20129;-89
2022/05/06 02:09:15;;;;;;;9.68;5.10;;;;;;;14.35;54.08;100268.44;5033746;28;20021;-89
2022/05/06 02:11:40;;;;;;;7.72;5.22;;;;;;;13.82;54.23;100161.50;5016126;28;20021;-89
2022/05/06 02:14:06;;;;;;;5.68;4.97;;;;;;;14.09;54.07;100213.94;5034158;28;20132;-88
2022/05/06 02:16:31;;;;;;;7.93;5.03;;;;;;;13.76;53.95;100165.72;5016369;28;20018;-88
2022/05/06 02:18:57;;;;;;;6.85;4.97;;;;;;;13.55;53.79;100117.88;5033925;28;20029;-89
2022/05/06 02:21:22;;;;;;;7.38;4.75;;;;;;;13.36;53.79;100114.72;5033578;28;20030;-89
2022/05/06 02:23:47;;;;;;;6.07;5.07;;;;;;;14.09;53.79;100250.28;5033694;28;20075;-89
2022/05/06 02:26:13;;;;;;;6.88;4.93;;;;;;;13.52;54.02;100156.19;5034034;28;20025;-89
2022/05/06 02:28:38;;;;;;;17.08;11.45;;;;;;;13.65;54.02;100185.56;5016214;28;20021;-89
2022/05/06 02:33:48;;;;;;;7.85;6.15;;;;;;;13.46;54.46;100190.59;5034099;28;20036;-90
2022/05/06 02:36:13;;;;;;;8.02;5.15;;;;;;;13.66;54.07;100226.22;5033905;28;20421;-89
2022/05/06 02:38:39;;;;;;;9.60;5.82;;;;;;;13.33;54.00;100178.75;5016405;28;20421;-89
2022/05/06 02:41:04;;;;;;;9.70;5.78;;;;;;;13.53;53.76;100228.66;5016111;28;20028;-89
2022/05/06 02:43:29;;;;;;;5.35;4.70;;;;;;;13.16;54.13;100187.81;5033480;28;20033;-89
2022/05/06 02:45:55;;;;;;;9.07;5.32;;;;;;;12.65;54.23;100115.19;5033741;28;20029;-88
2022/05/06 02:48:20;;;;;;;7.53;5.00;;;;;;;13.59;54.23;100310.19;5033936;28;20497;-90
2022/05/06 02:50:47;;;;;;;6.72;5.18;;;;;;;12.90;54.57;100182.88;5015901;28;20110;-89
2022/05/06 02:53:12;;;;;;;6.53;4.75;;;;;;;12.92;54.34;100204.75;5033503;28;20017;-89
2022/05/06 02:55:39;;;;;;;5.70;4.80;;;;;;;13.18;54.45;100230.91;5015677;28;20048;-89
2022/05/06 02:58:04;;;;;;;5.65;4.88;;;;;;;13.18;54.08;100241.53;5015481;28;20088;-89
2022/05/06 03:00:30;;;;;;;11.27;8.23;;;;;;;12.82;54.14;100190.06;5015319;28;20053;-90
2022/05/06 03:02:56;;;;;;;8.63;6.40;;;;;;;12.62;54.73;100174.63;5033353;28;20552;-90
2022/05/06 03:05:23;;;;;;;7.30;5.13;;;;;;;13.39;54.26;100299.25;5016142;28;20032;-89
2022/05/06 03:07:48;;;;;;;6.35;5.47;;;;;;;13.13;54.30;100273.00;5033229;28;20090;-90
2022/05/06 03:10:13;;;;;;;6.53;5.30;;;;;;;13.20;54.43;100323.53;5014967;28;20057;-89
2022/05/06 03:12:42;;;;;;;7.05;5.75;;;;;;;12.90;54.58;100265.06;5015536;28;20017;-89
2022/05/06 03:15:08;;;;;;;6.75;5.35;;;;;;;12.83;54.72;100263.28;5033083;28;20029;-90
2022/05/06 03:17:34;;;;;;;7.40;5.45;;;;;;;12.80;54.57;100272.41;5015602;28;20513;-90
2022/05/06 03:20:01;;;;;;;7.45;5.82;;;;;;;12.76;54.80;100267.63;5033326;28;20083;-89
2022/05/06 03:22:28;;;;;;;7.55;6.15;;;;;;;12.39;54.47;100222.25;5028350;28;20025;-88
2022/05/06 03:24:53;;;;;;;7.72;5.68;;;;;;;12.49;54.63;100269.72;5052791;28;20794;-87
2022/05/06 03:30:05;;;;;;;7.95;5.95;;;;;;;12.77;54.86;100316.97;5055208;28;20089;-87
2022/05/06 03:32:31;;;;;;;7.65;6.80;;;;;;;12.69;54.93;100329.25;5051950;28;20029;-89
2022/05/06 03:34:57;;;;;;;9.23;6.82;;;;;;;12.69;54.81;100316.00;5032609;28;20068;-89
2022/05/06 03:37:22;;;;;;;9.35;8.13;;;;;;;12.42;54.69;100287.31;5032329;28;20494;-89
2022/05/06 03:39:48;;;;;;;8.50;7.70;;;;;;;12.23;55.11;100240.03;5014549;28;20022;-89
2022/05/06 03:42:13;;;;;;;9.15;7.20;;;;;;;12.43;55.09;100251.03;5032068;28;20025;-90
2022/05/06 03:44:39;;;;;;;9.13;6.90;;;;;;;12.32;54.54;100234.53;5032211;28;20029;-90
2022/05/06 03:47:05;;;;;;;8.43;7.00;;;;;;;12.12;54.54;100183.00;5032006;28;20021;-90
2022/05/06 03:49:30;;;;;;;13.23;8.18;;;;;;;12.86;54.02;100298.22;5014206;28;20051;-89
2022/05/06 03:51:56;;;;;;;7.38;6.65;;;;;;;12.79;54.26;100299.06;5014153;28;20013;-89
2022/05/06 03:54:21;;;;;;;9.05;7.22;;;;;;;12.48;54.00;100227.50;5032224;28;20069;-89
2022/05/06 03:56:47;;;;;;;9.30;7.30;;;;;;;12.48;54.07;100243.41;5014231;28;20025;-89
2022/05/06 03:59:12;;;;;;;10.98;7.40;;;;;;;13.04;54.14;100337.69;5014097;28;20053;-89
2022/05/06 04:01:38;;;;;;;10.48;7.72;;;;;;;12.54;54.03;100246.19;5031911;28;20083;-91
2022/05/06 04:04:04;;;;;;;8.00;6.53;;;;;;;12.30;53.72;100182.75;5031850;28;20033;-91
2022/05/06 04:06:30;;;;;;;9.30;6.95;;;;;;;12.76;53.83;100305.56;5031721;28;20017;-89
2022/05/06 04:08:55;;;;;;;27.58;16.83;;;;;;;12.74;53.96;100267.81;5014193;28;20413;-89
2022/05/06 04:11:21;;;;;;;12.43;8.65;;;;;;;13.40;53.81;100342.50;5032033;28;20549;-87
2022/05/06 04:13:47;;;;;;;14.07;10.20;;;;;;;12.88;53.47;100253.81;5014252;28;20022;-89
2022/05/06 04:16:14;;;;;;;11.38;9.43;;;;;;;13.54;53.59;100349.69;5014337;28;20033;-88
2022/05/06 04:18:40;;;;;;;12.20;9.82;;;;;;;13.62;53.22;100344.31;5014609;28;20017;-89
2022/05/06 04:23:49;;;;;;;13.35;9.30;;;;;;;13.41;52.94;100317.63;5032207;28;20111;-87
2022/05/06 04:26:15;;;;;;;11.65;9.55;;;;;;;13.82;52.85;100356.09;5013873;28;20478;-88
2022/05/06 04:28:41;;;;;;;12.82;9.10;;;;;;;13.83;52.73;100343.66;5031780;28;20029;-89
2022/05/06 04:31:07;;;;;;;13.23;9.13;;;;;;;13.26;52.61;100260.03;5014076;28;20406;-88
2022/05/06 04:33:36;;;;;;;14.82;9.43;;;;;;;14.14;52.31;100356.81;5014082;28;20067;-88
2022/05/06 04:36:04;;;;;;;12.52;8.77;;;;;;;14.16;52.06;100355.63;5031762;28;20025;-88
2022/05/06 04:38:29;;;;;;;10.65;7.75;;;;;;;14.05;52.05;100312.75;5031853;28;20025;-88
2022/05/06 04:40:56;;;;;;;12.70;8.00;;;;;;;13.72;51.93;100256.50;5031765;28;20394;-88
2022/05/06 04:43:22;;;;;;;12.15;8.18;;;;;;;14.44;51.76;100366.50;5031927;28;20026;-88
2022/05/06 04:45:49;;;;;;;14.95;7.88;;;;;;;13.76;51.56;100237.38;5013882;28;20052;-88
2022/05/06 04:48:15;;;;;;;11.35;8.52;;;;;;;14.20;51.46;100316.25;5031562;28;20014;-88
2022/05/06 04:50:42;;;;;;;11.60;7.82;;;;;;;13.80;51.31;100217.44;5014215;28;20022;-88
2022/05/06 04:53:09;;;;;;;11.15;8.50;;;;;;;14.60;51.40;100357.50;5013858;28;20112;-88
2022/05/06 04:55:36;;;;;;;11.90;8.77;;;;;;;14.05;51.61;100246.34;5013726;28;20036;-88
2022/05/06 04:58:02;;;;;;;10.90;8.23;;;;;;;14.23;51.47;100260.94;5013432;28;20068;-88
2022/05/06 05:00:28;;;;;;;12.18;8.82;;;;;;;14.85;51.26;100360.69;5031397;28;20025;-88
2022/05/06 05:02:54;;;;;;;9.35;8.27;;;;;;;14.89;51.17;100365.50;5013976;28;20116;-88
2022/05/06 05:05:20;;;;;;;11.35;8.05;;;;;;;15.03;50.68;100370.97;5014165;28;20040;-88
2022/05/06 05:07:45;;;;;;;11.73;7.15;;;;;;;14.93;50.43;100368.59;5031425;28;20028;-88
2022/05/06 05:10:11;;;;;;;11.93;6.93;;;;;;;14.81;50.13;100303.59;5031282;28;20028;-88
2022/05/06 05:12:36;;;;;;;8.02;5.82;;;;;;;15.26;49.64;100382.28;5031730;28;20022;-88
2022/05/06 05:15:03;;;;;;;9.65;6.55;;;;;;;15.18;49.53;100345.97;5031400;28;20029;-88
2022/05/06 05:17:28;;;;;;;11.05;5.38;;;;;;;15.33;48.64;100353.09;5013469;28;20048;-88
2022/05/06 05:19:54;;;;;;;9.55;4.07;;;;;;;14.80;47.45;100289.47;5013517;28;20498;-88
2022/05/06 05:22:20;;;;;;;9.63;3.70;;;;;;;15.55;46.28;100365.38;5031327;28;20030;-88
2022/05/06 05:24:46;;;;;;;8.20;4.25;;;;;;;14.84;46.61;100234.09;5013622;28;20021;-88
2022/05/06 05:27:13;;;;;;;9.07;4.50;;;;;;;15.00;46.14;100241.03;5031330;28;20032;-88
2022/05/06 05:29:38;;;;;;;10.15;5.22;;;;;;;15.08;45.87;100243.56;5013465;28;20048;-87
2022/05/06 05:32:05;;;;;;;9.18;4.45;;;;;;;15.39;45.57;100283.16;5014095;28;20057;-88
2022/05/06 05:34:30;;;;;;;10.68;4.80;;;;;;;15.80;45.54;100352.56;5016977;28;20506;-88
2022/05/06 05:36:55;;;;;;;9.20;4.28;;;;;;;14.26;45.37;100106.53;5034655;28;20025;-87
2022/05/06 05:39:21;;;;;;;9.77;4.18;;;;;;;15.81;45.24;100338.22;5034639;28;20017;-87
2022/05/06 05:41:46;;;;;;;9.70;4.68;;;;;;;14.23;45.09;100077.69;5017019;28;20490;-88
2022/05/06 05:49:40;;;;;;;8.10;4.70;;;;;;;15.66;44.05;100308.22;5035580;28;20037;-87
2022/05/06 05:52:05;;;;;;;9.48;5.05;;;;;;;15.34;44.36;100243.81;5016856;28;20013;-88
2022/05/06 05:54:31;;;;;;;7.70;5.15;;;;;;;15.45;45.33;100261.09;5034744;28;20108;-88
2022/05/06 05:56:56;;;;;;;6.70;4.47;;;;;;;15.81;45.40;100360.34;5016762;28;20057;-88
2022/05/06 05:59:23;;;;;;;7.32;4.93;;;;;;;16.00;45.43;100331.41;5034141;28;20042;-87
2022/05/06 06:01:49;;;;;;;9.48;4.68;;;;;;;16.29;45.59;100375.69;5034285;28;20442;-88
2022/05/06 06:04:16;;;;;;;7.15;3.90;;;;;;;15.84;45.56;100288.06;5034318;28;20043;-87
2022/05/06 06:06:41;;;;;;;9.45;4.82;;;;;;;16.31;45.64;100371.78;5016921;28;20029;-87
2022/05/06 06:09:08;;;;;;;9.05;4.75;;;;;;;16.37;45.58;100359.56;5016466;28;20040;-87
2022/05/06 06:11:34;;;;;;;5.78;3.80;;;;;;;16.26;45.35;100323.59;5016291;28;20055;-87
2022/05/06 06:14:00;;;;;;;9.43;4.65;;;;;;;15.62;45.48;100219.09;5034032;28;20033;-87
2022/05/06 06:16:26;;;;;;;10.05;4.55;;;;;;;16.03;45.75;100273.25;5034176;28;20127;-88
2022/05/06 06:18:51;;;;;;;8.95;4.85;;;;;;;16.67;45.86;100366.31;5034024;28;20418;-87
2022/05/06 06:21:17;;;;;;;6.70;4.18;;;;;;;16.33;45.56;100321.78;5016284;28;20021;-88
2022/05/06 06:23:42;;;;;;;9.15;5.15;;;;;;;16.10;45.90;100279.44;5034198;28;20029;-87
2022/05/06 06:26:08;;;;;;;10.35;5.03;;;;;;;16.74;46.27;100417.03;5015972;28;20036;-87
2022/05/06 06:28:34;;;;;;;9.38;5.43;;;;;;;16.23;46.19;100296.50;5016263;28;20018;-87
2022/05/06 06:30:59;;;;;;;8.90;6.03;;;;;;;16.47;46.31;100309.38;5033569;28;20100;-88
2022/05/06 06:33:25;;;;;;;7.82;5.97;;;;;;;16.90;46.31;100368.69;5033851;28;20521;-87
2022/05/06 06:35:50;;;;;;;11.75;5.93;;;;;;;16.62;45.73;100318.06;5016197;28;20490;-87
2022/05/06 06:38:15;;;;;;;9.98;6.50;;;;;;;16.86;45.74;100343.44;5015954;28;20420;-88
2022/05/06 06:40:41;;;;;;;8.93;6.32;;;;;;;16.15;45.50;100257.53;5033809;28;20026;-87
2022/05/06 06:43:07;;;;;;;7.75;6.95;;;;;;;17.11;45.39;100367.75;5033342;28;20079;-87
2022/05/06 06:45:32;;;;;;;11.55;7.78;;;;;;;17.17;45.82;100371.47;5015601;28;20022;-89
2022/05/06 06:47:58;;;;;;;8.60;6.78;;;;;;;17.19;45.70;100372.09;5033170;28;20029;-89
2022/05/06 06:50:24;;;;;;;10.93;7.32;;;;;;;17.14;45.64;100373.53;5015860;28;20017;-88
2022/05/06 06:52:50;;;;;;;10.10;7.47;;;;;;;16.39;46.00;100257.06;5016031;28;20080;-87
2022/05/06 06:55:17;;;;;;;12.55;7.50;;;;;;;16.98;45.80;100333.00;5015661;28;20029;-90
2022/05/06 06:57:42;;;;;;;12.45;7.95;;;;;;;16.61;45.81;100264.94;5015848;28;20102;-87
2022/05/06 07:00:09;;;;;;;11.40;6.75;;;;;;;17.05;45.99;100334.69;5015803;28;20488;-89
2022/05/06 07:02:36;;;;;;;9.85;6.70;;;;;;;17.48;45.74;100377.09;5033616;28;20111;-89
2022/05/06 07:05:03;;;;;;;9.15;6.38;;;;;;;17.51;45.95;100378.53;5015923;28;20025;-89
2022/05/06 07:12:56;;;;;;;9.55;6.35;;;;;;;16.88;45.77;100265.88;5033443;28;20045;-87
2022/05/06 07:15:23;;;;;;;7.70;5.30;;;;;;;17.58;45.93;100366.03;5033041;28;20487;-88
2022/05/06 07:17:49;;;;;;;6.63;4.57;;;;;;;17.57;45.70;100367.88;5015107;28;20109;-87
2022/05/06 07:20:15;;;;;;;8.93;5.18;;;;;;;17.84;45.53;100359.94;5032919;28;20506;-87
2022/05/06 07:22:41;;;;;;;6.22;4.60;;;;;;;17.99;45.51;100352.53;5032796;28;20029;-86
2022/05/06 07:25:07;;;;;;;6.55;5.40;;;;;;;17.95;45.35;100337.94;5032899;28;20075;-87
2022/05/06 07:27:34;;;;;;;9.05;5.10;;;;;;;18.11;45.70;100353.56;5032288;28;20033;-87
2022/05/06 07:30:01;;;;;;;6.90;4.22;;;;;;;17.63;45.49;100256.75;5014594;28;20105;-87
2022/05/06 07:32:26;;;;;;;7.82;5.32;;;;;;;18.23;45.60;100335.84;5014447;28;20418;-87
2022/05/06 07:34:52;;;;;;;6.78;4.95;;;;;;;18.29;45.73;100360.94;5014642;28;20024;-87
2022/05/06 07:37:17;;;;;;;6.70;4.80;;;;;;;18.13;45.68;100311.41;5032321;28;20053;-87
2022/05/06 07:39:43;;;;;;;9.20;5.20;;;;;;;18.25;45.69;100331.13;5014599;28;20025;-87
2022/05/06 07:42:10;;;;;;;7.85;5.18;;;;;;;18.56;45.69;100359.84;5031955;28;20465;-88
2022/05/06 07:44:36;;;;;;;6.93;5.00;;;;;;;18.56;45.88;100353.66;5014260;28;20087;-87
2022/05/06 07:47:01;;;;;;;9.65;5.30;;;;;;;17.99;45.90;100261.69;5031922;28;20033;-87
2022/05/06 07:49:27;;;;;;;9.63;5.03;;;;;;;18.31;46.27;100321.44;5032140;28;20096;-88
2022/05/06 07:51:53;;;;;;;10.20;4.93;;;;;;;17.91;46.16;100227.19;5031698;28;20080;-87
2022/05/06 07:54:18;;;;;;;9.85;5.53;;;;;;;18.84;46.15;100362.28;5031703;28;20032;-87
2022/05/06 07:56:44;;;;;;;7.40;5.18;;;;;;;18.94;46.02;100368.00;5032171;28;20026;-87
2022/05/06 07:59:09;;;;;;;6.80;5.10;;;;;;;18.77;45.97;100334.72;5014518;28;20518;-87
2022/05/06 08:04:34;;;;;;;8.70;6.90;;;;;;;18.86;46.42;100292.50;5032370;28;20035;-87
2022/05/06 08:07:04;;;;;;;10.52;7.15;;;;;;;19.30;46.69;100356.69;5032171;28;20060;-87
2022/05/06 08:09:30;;;;;;;7.78;6.95;;;;;;;18.81;46.79;100265.56;5014187;28;20030;-87
2022/05/06 08:11:55;;;;;;;8.40;6.88;;;;;;;19.49;46.72;100368.34;5014662;28;20028;-88
2022/05/06 08:14:21;;;;;;;7.25;6.65;;;;;;;19.16;46.81;100344.41;5032131;28;20029;-87
2022/05/06 08:16:49;;;;;;;8.80;5.95;;;;;;;18.95;47.02;100302.72;5032320;28;20029;-87
2022/05/06 08:19:15;;;;;;;9.15;6.68;;;;;;;18.90;46.67;100281.16;5032171;28;20045;-85
2022/05/06 08:21:40;;;;;;;6.05;5.45;;;;;;;19.26;46.28;100323.34;5014005;28;20067;-86
2022/05/06 08:24:06;;;;;;;9.43;6.03;;;;;;;19.70;46.24;100377.91;5014016;28;20048;-87
2022/05/06 08:26:32;;;;;;;7.43;5.78;;;;;;;19.80;45.78;100364.03;5031454;28;20022;-87
2022/05/06 08:28:58;;;;;;;5.82;5.10;;;;;;;19.51;45.37;100298.50;5031488;28;20021;-87
2022/05/06 08:31:23;;;;;;;8.63;5.43;;;;;;;19.56;44.55;100286.13;5013422;28;20028;-89
2022/05/06 08:33:49;;;;;;;6.00;5.20;;;;;;;19.84;44.63;100335.75;5031005;28;20017;-88
2022/05/06 08:36:14;;;;;;;6.32;5.28;;;;;;;19.94;44.26;100339.59;5013407;28;20053;-87
2022/05/06 08:38:40;;;;;;;7.13;4.90;;;;;;;19.41;44.27;100248.09;5013555;28;20504;-89
2022/05/06 08:41:05;;;;;;;6.35;5.32;;;;;;;19.96;44.01;100334.81;5014236;28;20022;-87
2022/05/06 08:43:32;;;;;;;6.70;5.15;;;;;;;20.40;43.61;100367.06;5032053;28;20029;-87
2022/05/06 08:51:33;;;;;;;7.50;4.57;;;;;;;20.65;43.13;100378.53;5031861;28;20032;-87
2022/05/06 08:53:59;;;;;;;4.85;4.03;;;;;;;20.46;42.92;100344.69;5014224;28;20026;-87
2022/05/06 08:56:25;;;;;;;5.32;4.00;;;;;;;19.98;42.65;100246.16;5013363;28;20517;-88
2022/05/06 08:58:51;;;;;;;6.07;4.10;;;;;;;20.97;42.20;100373.03;5013285;28;20042;-88
2022/05/06 09:01:21;;;;;;;5.10;3.40;;;;;;;20.49;41.67;100295.97;5031337;28;20057;-90
2022/05/06 09:03:50;;;;;;;4.68;3.50;;;;;;;21.31;41.68;100372.41;5030907;28;20018;-88
2022/05/06 09:06:20;;;;;;;7.18;4.32;;;;;;;21.47;41.15;100368.25;5013654;28;20046;-88
2022/05/06 09:08:47;;;;;;;4.63;3.20;;;;;;;19.35;40.69;100024.03;5016939;28;20036;-88
2022/05/06 09:11:14;;;;;;;5.88;4.25;;;;;;;21.63;40.41;100361.44;5035145;28;20021;-87
2022/05/06 09:13:59;;;;;;;4.45;3.53;;;;;;;21.74;40.04;100357.94;5035064;28;20487;-88
2022/05/06 09:16:46;;;;;;;5.03;3.47;;;;;;;21.69;39.76;100339.81;5016798;28;20072;-89
2022/05/06 09:19:27;;;;;;;4.80;3.60;;;;;;;21.96;37.92;100350.13;5034984;28;20029;-89
2022/05/06 09:22:01;;;;;;;4.25;3.42;;;;;;;22.02;38.95;100347.34;5017034;28;20079;-88
2022/05/06 09:24:30;;;;;;;5.95;3.55;;;;;;;21.37;39.18;100237.16;5016930;28;20112;-87
2022/05/06 09:26:59;;;;;;;5.78;3.40;;;;;;;22.23;37.82;100350.53;5016888;28;20025;-88
2022/05/06 09:29:31;;;;;;;3.83;3.38;;;;;;;22.39;36.76;100347.97;5016670;28;20108;-86
2022/05/06 09:32:24;;;;;;;5.43;3.38;;;;;;;22.05;36.78;100278.84;5016635;28;20535;-88
2022/05/06 09:34:58;;;;;;;6.25;3.15;;;;;;;22.48;36.48;100335.78;5016435;28;20108;-88
2022/05/06 09:37:39;;;;;;;5.90;3.35;;;;;;;22.67;36.11;100333.75;5034240;28;20025;-87
2022/05/06 09:40:18;;;;;;;5.05;3.42;;;;;;;22.52;36.30;100299.25;5016771;28;20026;-88
2022/05/06 09:42:54;;;;;;;6.82;3.35;;;;;;;22.31;35.95;100262.22;5034710;28;20087;-89
2022/05/06 09:45:49;;;;;;;7.10;3.40;;;;;;;23.21;35.10;100331.63;5034922;28;20501;-88
2022/05/06 09:48:15;;;;;;;5.13;3.10;;;;;;;23.40;35.20;100330.34;5017800;28;20468;-87
2022/05/06 09:50:43;;;;;;;3.40;2.95;;;;;;;22.59;33.93;100212.19;5016659;28;20176;-87
2022/05/06 09:53:13;;;;;;;4.10;2.63;;;;;;;22.68;33.32;100221.50;5032858;28;20028;-87
2022/05/06 09:55:46;;;;;;;3.80;2.70;;;;;;;22.89;32.94;100253.16;5016794;28;20029;-87
2022/05/06 09:58:16;;;;;;;5.78;3.92;;;;;;;23.02;32.58;100227.81;5016392;28;20057;-86
2022/05/06 10:00:42;;;;;;;4.72;2.80;;;;;;;23.10;32.10;100219.34;5034429;28;20041;-87
2022/05/06 10:03:12;;;;;;;3.83;2.63;;;;;;;23.06;31.44;100226.28;5034373;28;20051;-86
2022/05/06 10:05:38;;;;;;;7.18;3.88;;;;;;;23.84;31.53;100309.00;5016709;28;20433;-87
2022/05/06 10:08:11;;;;;;;5.22;3.80;;;;;;;24.04;31.32;100301.22;5016956;28;20022;-86
2022/05/06 10:10:40;;;;;;;5.47;3.90;;;;;;;23.74;29.87;100263.81;5034549;28;20112;-86
2022/05/06 10:13:19;;;;;;;5.78;3.53;;;;;;;23.85;30.07;100272.06;5034693;28;20034;-87
2022/05/06 10:15:51;;;;;;;5.00;2.63;;;;;;;23.54;29.13;100233.00;5016185;28;20194;-87
2022/05/06 10:18:55;;;;;;;4.20;2.42;;;;;;;23.80;28.48;100286.31;5014738;28;20418;-87
2022/05/06 10:21:50;;;;;;;4.53;2.78;;;;;;;23.59;29.71;100274.34;4954191;29;20031;-86
2022/05/06 10:24:16;;;;;;;4.88;2.65;;;;;;;23.26;29.52;100237.41;4938046;29;20031;-86
2022/05/06 10:26:46;;;;;;;4.18;2.58;;;;;;;23.43;28.23;100270.56;5007342;28;20525;-86
2022/05/06 10:32:26;;;;;;;4.78;2.50;;;;;;;23.08;28.20;100216.09;5033865;28;20425;-87
2022/05/06 10:34:58;;;;;;;7.15;2.70;;;;;;;23.62;27.74;100286.53;5016158;28;20025;-86
2022/05/06 10:37:28;;;;;;;6.10;2.78;;;;;;;23.59;27.62;100279.75;5033736;28;20033;-88
2022/05/06 10:39:53;;;;;;;5.15;2.67;;;;;;;23.21;27.07;100217.66;5033641;28;20091;-86
2022/05/06 10:42:32;;;;;;;8.05;3.42;;;;;;;23.61;26.38;100283.00;5015738;28;20029;-86
2022/05/06 10:44:57;;;;;;;5.10;2.90;;;;;;;22.88;27.09;100192.28;5015852;28;20100;-86
2022/05/06 10:47:41;;;;;;;7.10;3.42;;;;;;;23.44;27.72;100280.28;5033082;28;20581;-86
2022/05/06 10:50:19;;;;;;;6.22;2.88;;;;;;;22.71;27.66;100170.69;5033441;28;20020;-86
2022/05/06 10:52:46;;;;;;;5.97;2.83;;;;;;;22.93;28.03;100218.50;5016145;28;20455;-86
2022/05/06 10:55:13;;;;;;;6.88;2.95;;;;;;;22.60;28.21;100165.38;5033502;28;20017;-88
2022/05/06 10:58:02;;;;;;;4.22;2.80;;;;;;;23.45;28.23;100264.94;5033049;28;20053;-88
2022/05/06 11:00:30;;;;;;;5.78;3.38;;;;;;;23.16;27.91;100221.06;5033185;28;20096;-86
2022/05/06 11:03:00;;;;;;;6.20;4.68;;;;;;;23.55;28.13;100251.66;5015560;28;20583;-86
2022/05/06 11:05:29;;;;;;;4.40;2.83;;;;;;;23.13;27.76;100175.75;5015330;28;20521;-88
2022/05/06 11:07:58;;;;;;;6.25;2.88;;;;;;;23.62;27.84;100249.59;5015394;28;20108;-86
2022/05/06 11:10:26;;;;;;;4.68;3.10;;;;;;;23.46;27.73;100221.56;5032872;28;20509;-88
2022/05/06 11:12:53;;;;;;;4.63;2.95;;;;;;;23.53;27.69;100247.53;5014744;28;20020;-87
2022/05/06 11:15:33;;;;;;;5.63;3.05;;;;;;;24.01;27.23;100249.66;5014839;28;20101;-88
2022/05/06 11:18:00;;;;;;;6.15;2.88;;;;;;;24.53;27.00;100246.56;5032171;28;20032;-87
2022/05/06 11:20:28;;;;;;;8.32;3.53;;;;;;;24.69;26.35;100219.50;5014351;28;20021;-88
2022/05/06 11:23:13;;;;;;;4.72;3.05;;;;;;;24.60;25.99;100172.41;5032136;28;20049;-87
2022/05/06 11:25:43;;;;;;;5.70;2.53;;;;;;;24.82;26.30;100233.66;5032804;28;20413;-88
2022/05/06 11:28:15;;;;;;;3.65;2.58;;;;;;;24.08;26.21;100128.88;5033019;28;20040;-88
2022/05/06 11:30:46;;;;;;;4.28;2.95;;;;;;;23.83;26.58;100080.84;5033246;28;20017;-87
2022/05/06 11:33:24;;;;;;;4.72;3.10;;;;;;;24.89;25.82;100234.28;5032989;28;20030;-87
2022/05/06 11:35:51;;;;;;;4.45;2.55;;;;;;;25.03;26.06;100246.31;5033224;28;20025;-87
2022/05/06 11:38:49;;;;;;;4.72;2.58;;;;;;;25.21;25.43;100221.63;5015485;28;20417;-87
2022/05/06 11:41:15;;;;;;;5.57;2.80;;;;;;;25.19;24.94;100175.13;4996769;28;20034;-87
2022/05/06 11:43:43;;;;;;;6.18;2.80;;;;;;;25.32;24.85;100125.22;5051446;28;20033;-86
2022/05/06 11:49:06;;;;;;;9.75;3.45;;;;;;;25.90;24.56;100143.16;5049019;28;20033;-88
2022/05/06 11:51:38;;;;;;;3.95;2.45;;;;;;;26.32;24.19;100204.50;5029156;28;20025;-88
2022/05/06 11:54:05;;;;;;;4.53;2.67;;;;;;;25.81;24.60;100124.97;5018160;28;20029;-87
2022/05/06 11:56:33;;;;;;;7.45;2.88;;;;;;;25.92;24.39;100175.34;5032191;28;20021;-87
2022/05/06 11:58:59;;;;;;;4.35;2.38;;;;;;;25.49;24.43;100150.22;5014113;28;20045;-87
2022/05/06 12:01:33;;;;;;;6.72;3.97;;;;;;;25.67;24.70;100184.16;5031786;28;20104;-87
2022/05/06 12:04:03;;;;;;;4.85;2.53;;;;;;;25.21;24.58;100150.53;5014664;28;20022;-88